createdAt,value
2022-10-29T00:00:56.883Z,7.82
2022-10-29T00:03:25.311Z,9.07
2022-10-29T00:06:01.579Z,8.85
2022-10-29T00:08:30.127Z,7.32
2022-10-29T00:11:06.068Z,10.35
2022-10-29T00:13:33.984Z,7.63
2022-10-29T00:16:04.422Z,7.57
2022-10-29T00:18:31.629Z,5.97
2022-10-29T00:21:04.449Z,6.10
2022-10-29T00:23:31.717Z,7.03
2022-10-29T00:26:03.707Z,7.10
2022-10-29T00:28:31.268Z,8.95
2022-10-29T00:31:02.596Z,8.80
2022-10-29T00:33:29.934Z,7.13
2022-10-29T00:36:06.801Z,8.70
2022-10-29T00:38:35.450Z,11.93
2022-10-29T00:41:04.547Z,6.95
2022-10-29T00:43:35.780Z,6.97
2022-10-29T00:46:08.753Z,7.78
2022-10-29T00:48:45.892Z,11.25
2022-10-29T00:51:15.392Z,9.48
2022-10-29T00:53:48.958Z,7.55
2022-10-29T00:56:17.408Z,8.07
2022-10-29T00:58:45.544Z,7.10
2022-10-29T01:01:13.665Z,8.00
2022-10-29T01:03:41.333Z,6.03
2022-10-29T01:06:09.196Z,6.35
2022-10-29T01:08:36.500Z,6.72
2022-10-29T01:11:22.693Z,9.60
2022-10-29T01:14:11.427Z,9.55
2022-10-29T01:16:59.832Z,8.38
2022-10-29T01:19:42.629Z,7.88
2022-10-29T01:22:27.314Z,7.88
2022-10-29T01:25:24.829Z,6.93
2022-10-29T01:28:06.949Z,7.40
2022-10-29T01:30:51.877Z,6.57
2022-10-29T01:36:11.170Z,5.53
2022-10-29T01:38:41.512Z,5.72
2022-10-29T01:41:39.505Z,6.78
2022-10-29T01:44:29.289Z,6.35
2022-10-29T01:47:00.952Z,7.63
2022-10-29T01:49:47.985Z,5.18
2022-10-29T01:52:19.126Z,6.65
2022-10-29T01:54:47.704Z,4.72
2022-10-29T01:57:35.747Z,6.13
2022-10-29T02:00:10.621Z,6.90
2022-10-29T02:03:00.234Z,6.45
2022-10-29T02:05:48.000Z,6.07
2022-10-29T02:08:26.944Z,6.60
2022-10-29T02:11:09.086Z,4.90
2022-10-29T02:13:45.195Z,4.93
2022-10-29T02:16:12.744Z,4.68
2022-10-29T02:18:45.517Z,6.53
2022-10-29T02:21:17.447Z,5.45
2022-10-29T02:23:45.752Z,5.40
2022-10-29T02:26:13.330Z,6.18
2022-10-29T02:28:40.565Z,4.97
2022-10-29T02:31:07.782Z,4.15
2022-10-29T02:33:35.044Z,4.95
2022-10-29T02:36:02.274Z,5.40
2022-10-29T02:38:29.530Z,4.97
2022-10-29T02:40:56.756Z,4.40
2022-10-29T02:43:24.009Z,5.00
2022-10-29T02:46:09.181Z,3.90
2022-10-29T02:48:36.371Z,6.45
2022-10-29T02:51:03.633Z,5.47
2022-10-29T02:53:30.868Z,5.80
2022-10-29T02:55:58.130Z,5.75
2022-10-29T02:58:25.377Z,5.80
2022-10-29T03:00:53.228Z,6.95
2022-10-29T03:03:20.735Z,6.30
2022-10-29T03:05:49.298Z,6.63
2022-10-29T03:08:17.160Z,5.72
2022-10-29T03:10:44.460Z,6.28
2022-10-29T03:13:11.886Z,5.15
2022-10-29T03:15:39.155Z,5.70
2022-10-29T03:18:06.488Z,4.93
2022-10-29T03:20:33.766Z,7.30
2022-10-29T03:23:00.991Z,5.93
2022-10-29T03:25:28.192Z,5.22
2022-10-29T03:27:55.792Z,4.40
2022-10-29T03:30:23.265Z,6.28
2022-10-29T03:32:50.532Z,6.45
2022-10-29T03:35:17.782Z,5.40
2022-10-29T03:37:45.038Z,5.00
2022-10-29T03:40:12.329Z,5.55
2022-10-29T03:42:39.776Z,5.07
2022-10-29T03:45:07.428Z,7.00
2022-10-29T03:47:34.727Z,5.78
2022-10-29T03:50:02.246Z,5.13
2022-10-29T03:52:29.595Z,6.07
2022-10-29T03:54:56.851Z,5.13
2022-10-29T03:57:24.069Z,5.22
2022-10-29T03:59:52.653Z,6.45
2022-10-29T04:02:20.787Z,5.90
2022-10-29T04:04:48.313Z,5.13
2022-10-29T04:07:15.937Z,5.18
2022-10-29T04:09:43.209Z,4.60
2022-10-29T04:12:10.426Z,5.03
2022-10-29T04:14:42.760Z,5.45
2022-10-29T04:17:13.190Z,4.38
2022-10-29T04:19:40.637Z,5.22
2022-10-29T04:28:36.852Z,4.93
2022-10-29T04:30:29.817Z,3.55
2022-10-29T04:33:00.853Z,4.20
2022-10-29T04:35:29.383Z,3.63
2022-10-29T04:37:56.724Z,4.53
2022-10-29T04:40:24.948Z,3.47
2022-10-29T04:42:52.254Z,2.95
2022-10-29T04:45:19.630Z,4.40
2022-10-29T04:47:46.904Z,3.67
2022-10-29T04:50:14.532Z,3.95
2022-10-29T04:52:41.848Z,5.10
2022-10-29T04:55:09.244Z,4.43
2022-10-29T04:57:36.582Z,4.50
2022-10-29T05:00:04.761Z,4.45
2022-10-29T05:02:31.954Z,3.58
2022-10-29T05:04:59.144Z,4.85
2022-10-29T05:07:26.340Z,3.78
2022-10-29T05:09:53.560Z,4.38
2022-10-29T05:12:20.764Z,3.08
2022-10-29T05:14:47.973Z,2.97
2022-10-29T05:17:15.640Z,3.45
2022-10-29T05:19:42.874Z,4.20
2022-10-29T05:22:10.087Z,3.40
2022-10-29T05:24:37.309Z,4.47
2022-10-29T05:27:06.921Z,4.47
2022-10-29T05:29:34.201Z,3.63
2022-10-29T05:32:01.389Z,2.90
2022-10-29T05:34:28.612Z,3.95
2022-10-29T05:36:55.878Z,3.92
2022-10-29T05:39:23.196Z,4.20
2022-10-29T05:41:50.451Z,5.28
2022-10-29T05:44:17.673Z,3.30
2022-10-29T05:46:48.047Z,4.70
2022-10-29T05:49:15.240Z,3.38
2022-10-29T05:51:42.474Z,4.32
2022-10-29T05:54:09.683Z,3.53
2022-10-29T05:56:36.872Z,3.75
2022-10-29T05:59:04.091Z,4.05
2022-10-29T06:01:31.871Z,3.92
2022-10-29T06:04:01.250Z,4.93
2022-10-29T06:06:28.751Z,4.32
2022-10-29T06:08:55.941Z,3.72
2022-10-29T06:11:23.185Z,3.40
2022-10-29T06:13:50.409Z,4.18
2022-10-29T06:16:18.857Z,3.45
2022-10-29T06:18:46.081Z,5.05
2022-10-29T06:21:13.310Z,4.00
2022-10-29T06:23:40.555Z,4.13
2022-10-29T06:26:07.803Z,3.63
2022-10-29T06:28:35.179Z,4.65
2022-10-29T06:31:03.052Z,3.65
2022-10-29T06:33:30.277Z,3.13
2022-10-29T06:36:01.380Z,3.75
2022-10-29T06:38:28.832Z,3.85
2022-10-29T06:40:56.121Z,3.58
2022-10-29T06:43:23.400Z,3.53
2022-10-29T06:45:50.739Z,3.72
2022-10-29T06:48:22.106Z,3.53
2022-10-29T06:50:50.858Z,3.63
2022-10-29T06:53:18.979Z,3.33
2022-10-29T06:55:46.408Z,3.72
2022-10-29T06:58:15.667Z,4.85
2022-10-29T07:00:43.434Z,4.90
2022-10-29T07:03:16.402Z,6.45
2022-10-29T07:05:43.871Z,3.22
2022-10-29T07:08:11.477Z,3.50
2022-10-29T07:10:39.506Z,4.13
2022-10-29T07:13:06.743Z,4.75
2022-10-29T07:15:34.010Z,3.92
2022-10-29T07:18:06.082Z,4.07
2022-10-29T07:20:38.905Z,4.15
2022-10-29T07:23:06.540Z,5.32
2022-10-29T07:25:35.395Z,4.40
2022-10-29T07:28:14.374Z,3.33
2022-10-29T07:30:42.429Z,3.45
2022-10-29T07:33:10.127Z,5.20
2022-10-29T07:35:37.515Z,4.82
2022-10-29T07:38:09.081Z,5.97
2022-10-29T07:40:47.916Z,6.40
2022-10-29T07:43:15.960Z,6.03
2022-10-29T07:45:50.886Z,4.88
2022-10-29T07:48:19.797Z,5.38
2022-10-29T07:50:47.692Z,6.75
2022-10-29T07:53:15.143Z,4.43
2022-10-29T07:55:42.451Z,6.25
2022-10-29T07:58:12.415Z,6.85
2022-10-29T08:00:41.349Z,5.75
2022-10-29T08:03:10.271Z,6.00
2022-10-29T08:05:37.636Z,7.75
2022-10-29T08:08:05.661Z,6.22
2022-10-29T08:10:34.636Z,5.78
2022-10-29T08:13:03.967Z,5.63
2022-10-29T08:15:33.019Z,7.43
2022-10-29T08:18:00.755Z,6.28
2022-10-29T08:20:29.152Z,6.35
2022-10-29T08:22:58.931Z,6.75
2022-10-29T08:25:26.620Z,7.88
2022-10-29T08:28:01.827Z,7.25
2022-10-29T08:30:29.494Z,6.22
2022-10-29T08:32:57.443Z,8.20
2022-10-29T08:35:25.085Z,9.00
2022-10-29T08:37:52.302Z,10.25
2022-10-29T08:40:53.794Z,7.53
2022-10-29T08:47:14.280Z,13.25
2022-10-29T09:01:38.651Z,9.95
2022-10-29T09:04:30.889Z,12.02
2022-10-29T09:07:16.646Z,10.65
2022-10-29T09:09:59.771Z,8.25
2022-10-29T09:12:40.598Z,14.02
2022-10-29T09:15:36.334Z,14.70
2022-10-29T09:18:22.479Z,9.50
2022-10-29T09:21:01.714Z,11.40
2022-10-29T09:23:49.832Z,9.35
2022-10-29T09:29:45.918Z,11.65
2022-10-29T09:32:28.689Z,10.73
2022-10-29T09:37:56.034Z,10.40
2022-10-29T09:40:39.391Z,11.10
2022-10-29T09:43:13.899Z,11.27
2022-10-29T09:48:43.035Z,14.70
2022-10-29T09:51:42.580Z,12.70
2022-10-29T09:54:10.197Z,10.52
2022-10-29T09:56:42.129Z,14.93
2022-10-29T09:59:32.221Z,17.75
2022-10-29T10:02:00.054Z,15.27
2022-10-29T10:04:37.314Z,17.83
2022-10-29T10:07:16.361Z,18.20
2022-10-29T10:10:05.085Z,16.92
2022-10-29T10:12:38.462Z,16.33
2022-10-29T10:15:19.160Z,18.70
2022-10-29T10:18:04.034Z,17.17
2022-10-29T10:23:30.202Z,15.55
2022-10-29T10:26:02.329Z,18.25
2022-10-29T10:28:35.508Z,17.20
2022-10-29T10:31:15.218Z,20.95
2022-10-29T10:34:09.494Z,17.15
2022-10-29T10:36:42.218Z,21.40
2022-10-29T10:39:38.066Z,17.55
2022-10-29T10:42:16.058Z,19.48
2022-10-29T10:44:52.994Z,18.95
2022-10-29T10:47:24.970Z,19.00
2022-10-29T10:49:52.383Z,18.92
2022-10-29T10:52:26.460Z,20.73
2022-10-29T10:55:01.367Z,20.13
2022-10-29T10:57:37.483Z,22.48
2022-10-29T11:00:19.254Z,26.70
2022-10-29T11:03:08.665Z,24.15
2022-10-29T11:05:39.853Z,27.10
2022-10-29T11:08:29.224Z,30.77
2022-10-29T11:11:04.214Z,32.65
2022-10-29T11:13:33.465Z,28.50
2022-10-29T11:16:16.920Z,29.77
2022-10-29T11:19:12.981Z,29.75
2022-10-29T11:21:50.669Z,34.05
2022-10-29T11:24:46.306Z,34.53
2022-10-29T11:27:40.916Z,32.28
2022-10-29T11:30:14.629Z,34.22
2022-10-29T11:33:19.476Z,36.13
2022-10-29T11:36:05.570Z,39.63
2022-10-29T11:38:55.368Z,35.03
2022-10-29T11:41:38.244Z,34.10
2022-10-29T11:44:12.047Z,40.65
2022-10-29T11:47:02.485Z,34.08
2022-10-29T11:49:52.451Z,40.88
2022-10-29T11:52:35.540Z,36.95
2022-10-29T11:55:24.698Z,44.08
2022-10-29T11:58:37.972Z,37.85
2022-10-29T12:04:03.613Z,36.45
2022-10-29T12:06:54.898Z,34.40
2022-10-29T12:09:44.931Z,32.92
2022-10-29T12:12:39.658Z,32.38
2022-10-29T12:15:45.309Z,40.75
2022-10-29T12:21:18.937Z,32.03
2022-10-29T12:23:48.936Z,28.40
2022-10-29T12:26:26.230Z,29.38
2022-10-29T12:29:07.434Z,28.08
2022-10-29T12:32:05.078Z,27.98
2022-10-29T12:35:02.778Z,28.65
2022-10-29T12:38:03.870Z,28.10
2022-10-29T12:40:38.505Z,26.38
2022-10-29T12:43:12.018Z,28.30
2022-10-29T12:46:19.073Z,25.65
2022-10-29T12:49:07.594Z,25.25
2022-10-29T12:52:03.041Z,23.25
2022-10-29T12:54:39.884Z,24.92
2022-10-29T12:57:34.814Z,22.80
2022-10-29T13:00:23.754Z,28.98
2022-10-29T13:02:52.520Z,23.55
2022-10-29T13:05:37.173Z,23.08
2022-10-29T13:08:04.333Z,25.65
2022-10-29T13:10:34.517Z,26.52
2022-10-29T13:13:18.418Z,20.90
2022-10-29T13:16:00.118Z,51.73
2022-10-29T13:18:48.776Z,32.60
2022-10-29T13:21:54.363Z,38.90
2022-10-29T13:26:56.920Z,38.58
2022-10-29T13:30:01.608Z,33.40
2022-10-29T13:32:39.381Z,33.70
2022-10-29T13:35:27.226Z,32.75
2022-10-29T13:38:11.663Z,33.67
2022-10-29T13:40:56.295Z,30.52
2022-10-29T13:43:24.300Z,34.35
2022-10-29T13:46:07.339Z,24.33
2022-10-29T13:48:39.174Z,25.13
2022-10-29T13:51:15.152Z,25.90
2022-10-29T13:53:58.635Z,25.95
2022-10-29T13:56:52.825Z,26.40
2022-10-29T13:59:31.017Z,26.25
2022-10-29T14:02:05.961Z,27.75
2022-10-29T14:04:39.336Z,29.40
2022-10-29T14:07:26.661Z,32.28
2022-10-29T14:09:59.744Z,22.95
2022-10-29T14:12:31.348Z,22.05
2022-10-29T14:15:01.667Z,22.60
2022-10-29T14:17:29.053Z,19.60
2022-10-29T14:19:56.442Z,24.67
2022-10-29T14:22:39.036Z,34.97
2022-10-29T14:25:25.216Z,28.48
2022-10-29T14:28:19.163Z,25.88
2022-10-29T14:30:59.470Z,27.90
2022-10-29T14:33:30.025Z,34.10
2022-10-29T14:36:07.787Z,28.60
2022-10-29T14:38:41.710Z,31.98
2022-10-29T14:41:09.438Z,27.98
2022-10-29T14:43:37.867Z,28.25
2022-10-29T14:46:22.004Z,27.52
2022-10-29T14:49:05.048Z,21.02
2022-10-29T14:51:40.389Z,30.88
2022-10-29T14:54:09.525Z,28.40
2022-10-29T14:56:41.164Z,29.17
2022-10-29T14:59:15.323Z,32.15
2022-10-29T15:01:49.129Z,28.98
2022-10-29T15:04:26.106Z,32.85
2022-10-29T15:07:24.740Z,28.02
2022-10-29T15:10:08.884Z,30.83
2022-10-29T15:12:39.207Z,26.35
2022-10-29T15:15:16.998Z,26.98
2022-10-29T15:18:19.506Z,36.63
2022-10-29T15:20:47.179Z,23.70
2022-10-29T15:23:28.071Z,24.67
2022-10-29T15:26:02.561Z,26.83
2022-10-29T15:31:03.057Z,24.73
2022-10-29T15:33:31.686Z,28.23
2022-10-29T15:36:05.924Z,24.75
2022-10-29T15:38:34.313Z,27.08
2022-10-29T15:41:20.283Z,30.05
2022-10-29T15:43:55.689Z,29.35
2022-10-29T15:46:29.145Z,22.85
2022-10-29T15:48:56.517Z,24.85
2022-10-29T15:51:28.874Z,24.90
2022-10-29T15:53:57.883Z,26.05
2022-10-29T15:56:25.749Z,28.15
2022-10-29T15:58:53.693Z,29.23
2022-10-29T16:01:21.211Z,26.42
2022-10-29T16:03:48.677Z,32.65
2022-10-29T16:06:16.397Z,30.23
2022-10-29T16:08:47.599Z,36.83
2022-10-29T16:11:20.067Z,33.83
2022-10-29T16:13:53.379Z,32.65
2022-10-29T16:16:24.644Z,35.63
2022-10-29T16:18:52.755Z,32.78
2022-10-29T16:21:25.143Z,30.92
2022-10-29T16:23:53.121Z,37.88
2022-10-29T16:26:25.337Z,34.50
2022-10-29T16:28:53.327Z,40.70
2022-10-29T16:31:23.896Z,46.80
2022-10-29T16:33:55.596Z,39.70
2022-10-29T16:36:22.986Z,51.58
2022-10-29T16:38:50.253Z,55.20
2022-10-29T16:41:19.450Z,51.55
2022-10-29T16:43:47.789Z,51.08
2022-10-29T16:46:15.365Z,61.65
2022-10-29T16:48:42.683Z,60.35
2022-10-29T16:51:10.256Z,64.85
2022-10-29T16:53:37.555Z,72.70
2022-10-29T16:56:05.297Z,74.63
2022-10-29T16:58:32.573Z,58.90
2022-10-29T17:01:07.779Z,63.50
2022-10-29T17:03:35.580Z,71.68
2022-10-29T17:06:05.193Z,63.95
2022-10-29T17:08:33.809Z,69.32
2022-10-29T17:11:03.719Z,67.10
2022-10-29T17:13:30.995Z,70.53
2022-10-29T17:15:58.306Z,63.08
2022-10-29T17:18:25.615Z,65.35
2022-10-29T17:21:00.266Z,71.10
2022-10-29T17:23:29.067Z,66.32
2022-10-29T17:25:57.646Z,66.90
2022-10-29T17:28:26.174Z,81.32
2022-10-29T17:30:53.968Z,79.07
2022-10-29T17:33:21.365Z,80.25
2022-10-29T17:35:49.785Z,81.80
2022-10-29T17:38:17.069Z,84.65
2022-10-29T17:40:46.152Z,82.97
2022-10-29T17:43:13.523Z,93.05
2022-10-29T17:45:43.674Z,87.10
2022-10-29T17:48:10.928Z,95.32
2022-10-29T17:50:38.181Z,87.05
2022-10-29T17:53:05.451Z,87.88
2022-10-29T17:55:32.744Z,98.70
2022-10-29T17:58:00.384Z,98.13
2022-10-29T18:00:28.409Z,102.45
2022-10-29T18:02:55.637Z,107.13
2022-10-29T18:05:22.921Z,99.40
2022-10-29T18:07:50.178Z,93.43
2022-10-29T18:10:17.915Z,99.90
2022-10-29T18:12:45.166Z,87.40
2022-10-29T18:15:12.425Z,91.25
2022-10-29T18:17:40.733Z,94.75
2022-10-29T18:20:08.613Z,85.63
2022-10-29T18:22:36.086Z,88.70
2022-10-29T18:25:03.469Z,90.07
2022-10-29T18:27:30.677Z,90.32
2022-10-29T18:29:57.999Z,96.45
2022-10-29T18:32:25.416Z,88.10
2022-10-29T18:34:52.648Z,84.60
2022-10-29T18:37:19.912Z,93.57
2022-10-29T18:39:47.199Z,92.53
2022-10-29T18:42:14.401Z,92.45
2022-10-29T18:44:41.621Z,85.35
2022-10-29T18:47:08.907Z,90.18
2022-10-29T18:49:36.123Z,85.88
2022-10-29T18:52:03.512Z,92.20
2022-10-29T18:54:30.763Z,87.10
2022-10-29T18:56:58.050Z,89.82
2022-10-29T18:59:25.290Z,93.53
2022-10-29T19:01:52.622Z,95.30
2022-10-29T19:04:20.009Z,96.28
2022-10-29T19:06:47.338Z,94.93
2022-10-29T19:09:14.841Z,100.22
2022-10-29T19:11:42.097Z,101.72
2022-10-29T19:14:13.674Z,97.45
2022-10-29T19:16:41.161Z,92.43
2022-10-29T19:19:12.135Z,96.30
2022-10-29T19:21:40.662Z,98.65
2022-10-29T19:24:11.996Z,98.43
2022-10-29T19:26:39.199Z,95.85
2022-10-29T19:29:07.708Z,99.60
2022-10-29T19:31:35.782Z,100.88
2022-10-29T19:34:06.389Z,103.32
2022-10-29T19:36:35.092Z,96.68
2022-10-29T19:39:02.440Z,100.72
2022-10-29T19:41:30.475Z,112.07
2022-10-29T19:44:02.155Z,109.05
2022-10-29T19:46:30.183Z,111.47
2022-10-29T19:48:58.465Z,108.10
2022-10-29T19:51:26.401Z,112.50
2022-10-29T19:53:53.660Z,111.95
2022-10-29T19:56:21.820Z,109.72
2022-10-29T19:58:49.147Z,108.10
2022-10-29T20:01:18.328Z,111.65
2022-10-29T20:03:46.490Z,112.68
2022-10-29T20:06:14.413Z,107.22
2022-10-29T20:08:41.919Z,105.93
2022-10-29T20:11:09.372Z,110.70
2022-10-29T20:13:37.879Z,108.65
2022-10-29T20:16:13.778Z,110.53
2022-10-29T20:18:41.147Z,105.50
2022-10-29T20:21:09.120Z,103.60
2022-10-29T20:23:36.461Z,109.47
2022-10-29T20:26:03.841Z,107.20
2022-10-29T20:28:31.176Z,107.32
2022-10-29T20:31:12.032Z,113.82
2022-10-29T20:33:39.413Z,108.68
2022-10-29T20:36:07.059Z,111.78
2022-10-29T20:38:34.433Z,115.00
2022-10-29T20:41:01.693Z,116.05
2022-10-29T20:43:28.977Z,118.35
2022-10-29T20:46:03.411Z,109.47
2022-10-29T20:48:32.717Z,110.40
2022-10-29T20:50:59.906Z,110.25
2022-10-29T20:53:27.286Z,108.82
2022-10-29T20:55:54.887Z,109.68
2022-10-29T20:58:22.849Z,109.97
2022-10-29T21:00:50.207Z,110.25
2022-10-29T21:03:18.350Z,105.07
2022-10-29T21:05:45.652Z,107.07
2022-10-29T21:08:12.959Z,104.03
2022-10-29T21:10:40.275Z,105.38
2022-10-29T21:13:07.517Z,109.88
2022-10-29T21:15:37.858Z,103.60
2022-10-29T21:18:05.381Z,96.88
2022-10-29T21:20:33.220Z,99.43
2022-10-29T21:23:00.789Z,103.35
2022-10-29T21:25:28.301Z,100.53
2022-10-29T21:27:55.954Z,99.45
2022-10-29T21:30:23.542Z,104.57
2022-10-29T21:32:51.084Z,103.47
2022-10-29T21:35:18.472Z,104.50
2022-10-29T21:37:45.728Z,102.82
2022-10-29T21:40:13.493Z,104.55
2022-10-29T21:42:41.884Z,103.75
2022-10-29T21:45:09.446Z,102.90
2022-10-29T21:47:36.639Z,99.88
2022-10-29T21:50:04.097Z,97.72
2022-10-29T21:52:32.033Z,102.97
2022-10-29T21:54:59.238Z,101.10
2022-10-29T21:57:26.518Z,98.40
2022-10-29T21:59:53.760Z,98.05
2022-10-29T22:02:21.071Z,96.13
2022-10-29T22:04:48.346Z,97.15
2022-10-29T22:07:15.610Z,93.88
2022-10-29T22:09:42.854Z,97.72
2022-10-29T22:12:10.081Z,95.78
2022-10-29T22:14:37.339Z,98.20
2022-10-29T22:17:04.552Z,89.95
2022-10-29T22:19:31.787Z,93.25
2022-10-29T22:21:59.040Z,94.97
2022-10-29T22:24:26.259Z,92.95
2022-10-29T22:26:53.468Z,90.50
2022-10-29T22:29:20.701Z,92.55
2022-10-29T22:31:47.988Z,90.07
2022-10-29T22:34:15.281Z,89.63
2022-10-29T22:36:42.553Z,93.18
2022-10-29T22:39:09.846Z,93.30
2022-10-29T22:41:37.087Z,90.32
2022-10-29T22:44:04.481Z,86.43
2022-10-29T22:46:31.755Z,88.25
2022-10-29T22:49:01.668Z,88.32
2022-10-29T22:51:31.822Z,89.10
2022-10-29T22:53:59.556Z,81.55
2022-10-29T22:56:29.856Z,85.88
2022-10-29T22:58:57.244Z,84.10
2022-10-29T23:01:27.547Z,83.45
2022-10-29T23:03:55.080Z,87.70
2022-10-29T23:06:23.659Z,86.60
2022-10-29T23:08:56.115Z,84.65
2022-10-29T23:11:30.456Z,84.40
2022-10-29T23:13:59.574Z,83.72
2022-10-29T23:16:29.309Z,86.75
2022-10-29T23:18:59.853Z,84.53
2022-10-29T23:21:28.431Z,82.13
2022-10-29T23:23:56.130Z,81.25
2022-10-29T23:26:24.671Z,82.03
2022-10-29T23:28:51.978Z,84.97
2022-10-29T23:31:22.135Z,81.35
2022-10-29T23:33:51.796Z,82.50
2022-10-29T23:36:21.185Z,78.63
2022-10-29T23:38:53.691Z,76.40
2022-10-29T23:41:20.913Z,78.97
2022-10-29T23:43:48.125Z,77.55
2022-10-29T23:46:15.324Z,76.78
2022-10-29T23:48:42.615Z,73.80
2022-10-29T23:51:09.878Z,75.65
2022-10-29T23:53:37.138Z,76.00
2022-10-29T23:56:04.944Z,74.88
2022-10-29T23:58:32.242Z,69.10
